createdAt,value
2023-04-26T00:00:12.107Z,5.40
2023-04-26T00:05:14.399Z,5.30
2023-04-26T00:10:16.450Z,5.30
2023-04-26T00:15:18.804Z,5.30
2023-04-26T00:20:20.615Z,5.20
2023-04-26T00:25:22.433Z,5.20
2023-04-26T00:30:24.232Z,5.10
2023-04-26T00:35:26.058Z,5.10
2023-04-26T00:40:27.844Z,5.10
2023-04-26T00:45:29.879Z,5.00
2023-04-26T00:50:32.513Z,4.90
2023-04-26T00:55:34.984Z,4.90
2023-04-26T01:00:37.009Z,4.80
2023-04-26T01:05:39.199Z,4.80
2023-04-26T01:10:41.256Z,4.70
2023-04-26T01:15:46.213Z,4.70
2023-04-26T01:20:48.389Z,4.60
2023-04-26T01:25:50.121Z,4.60
2023-04-26T01:30:51.902Z,4.50
2023-04-26T01:35:53.612Z,4.50
2023-04-26T01:40:55.312Z,4.50
2023-04-26T01:45:57.076Z,4.50
2023-04-26T01:51:04.951Z,4.40
2023-04-26T01:56:08.475Z,4.40
2023-04-26T02:01:12.390Z,4.30
2023-04-26T02:06:14.108Z,4.30
2023-04-26T02:11:15.826Z,4.30
2023-04-26T02:16:17.581Z,4.20
2023-04-26T02:21:21.989Z,4.20
2023-04-26T02:26:23.695Z,4.10
2023-04-26T02:31:25.555Z,4.10
2023-04-26T02:36:27.436Z,4.10
2023-04-26T02:41:32.807Z,4.00
2023-04-26T02:46:34.576Z,4.00
2023-04-26T02:51:36.377Z,4.00
2023-04-26T02:56:38.123Z,4.00
2023-04-26T03:01:40.346Z,3.90
2023-04-26T03:06:42.410Z,3.80
2023-04-26T03:11:44.188Z,3.90
2023-04-26T03:16:46.218Z,3.90
2023-04-26T03:21:47.932Z,3.80
2023-04-26T03:26:49.729Z,3.80
2023-04-26T03:31:51.940Z,3.80
2023-04-26T03:36:53.701Z,3.80
2023-04-26T03:41:55.595Z,3.80
2023-04-26T03:46:58.119Z,3.70
2023-04-26T03:51:59.932Z,3.70
2023-04-26T03:57:01.795Z,3.70
2023-04-26T04:02:03.703Z,3.60
2023-04-26T04:07:06.807Z,3.60
2023-04-26T04:12:09.242Z,3.60
2023-04-26T04:17:11.868Z,3.70
2023-04-26T04:22:14.176Z,3.60
2023-04-26T04:27:16.314Z,3.70
2023-04-26T04:32:20.114Z,3.70
2023-04-26T04:37:22.820Z,3.70
2023-04-26T04:42:26.929Z,3.70
2023-04-26T04:47:29.453Z,3.70
2023-04-26T04:52:33.101Z,3.70
2023-04-26T04:57:34.968Z,3.80
2023-04-26T05:02:38.101Z,3.80
2023-04-26T05:07:40.870Z,3.90
2023-04-26T05:12:43.117Z,4.00
2023-04-26T05:17:45.412Z,4.00
2023-04-26T05:22:52.133Z,4.00
2023-04-26T05:27:53.891Z,4.10
2023-04-26T05:33:09.511Z,4.20
2023-04-26T05:38:17.774Z,4.30
2023-04-26T05:43:19.691Z,4.40
2023-04-26T05:48:22.445Z,4.50
2023-04-26T05:53:24.430Z,4.60
2023-04-26T05:58:26.268Z,4.70
2023-04-26T06:03:28.502Z,4.70
2023-04-26T06:08:30.841Z,4.90
2023-04-26T06:13:32.572Z,4.90
2023-04-26T06:18:35.449Z,5.00
2023-04-26T06:23:44.785Z,5.10
2023-04-26T06:28:46.752Z,5.20
2023-04-26T06:33:49.105Z,5.30
2023-04-26T06:38:50.960Z,5.50
2023-04-26T06:43:53.358Z,5.70
2023-04-26T06:48:56.697Z,5.80
2023-04-26T06:54:00.885Z,6.00
2023-04-26T06:59:07.332Z,6.00
2023-04-26T07:04:12.097Z,6.20
2023-04-26T07:09:15.505Z,6.30
2023-04-26T07:14:17.622Z,6.30
2023-04-26T07:19:19.682Z,6.50
2023-04-26T07:24:21.495Z,6.80
2023-04-26T07:29:23.293Z,7.20
2023-04-26T07:34:25.296Z,7.30
2023-04-26T07:39:27.106Z,7.80
2023-04-26T07:44:28.796Z,7.70
2023-04-26T07:49:30.992Z,8.20
2023-04-26T07:54:32.708Z,7.90
2023-04-26T07:59:34.422Z,7.90
2023-04-26T08:04:36.791Z,8.30
2023-04-26T08:09:38.600Z,8.20
2023-04-26T08:14:40.372Z,7.80
2023-04-26T08:19:42.174Z,8.00
2023-04-26T08:24:48.345Z,8.10
2023-04-26T08:29:50.171Z,8.00
2023-04-26T08:34:51.967Z,7.90
2023-04-26T08:39:53.694Z,8.20
2023-04-26T08:44:55.764Z,8.50
2023-04-26T08:50:03.610Z,8.40
2023-04-26T08:55:09.931Z,8.50
2023-04-26T09:00:15.868Z,8.60
2023-04-26T09:05:17.923Z,8.40
2023-04-26T09:10:21.972Z,9.00
2023-04-26T09:15:26.477Z,9.20
2023-04-26T09:20:29.795Z,8.80
2023-04-26T09:25:32.453Z,8.60
2023-04-26T09:30:39.983Z,8.80
2023-04-26T09:35:43.525Z,8.90
2023-04-26T09:40:50.004Z,8.80
2023-04-26T09:45:58.703Z,8.70
2023-04-26T09:51:03.148Z,8.90
2023-04-26T09:56:10.803Z,9.00
2023-04-26T10:01:16.157Z,9.00
2023-04-26T10:06:18.651Z,9.40
2023-04-26T10:11:21.894Z,9.70
2023-04-26T10:16:24.422Z,9.50
2023-04-26T10:21:31.875Z,9.30
2023-04-26T10:26:57.194Z,9.50
2023-04-26T10:32:02.282Z,9.20
2023-04-26T10:37:17.895Z,9.50
2023-04-26T10:42:24.090Z,9.20
2023-04-26T10:47:32.084Z,9.10
2023-04-26T10:52:35.384Z,9.00
2023-04-26T10:57:51.888Z,9.00
2023-04-26T11:03:04.727Z,8.80
2023-04-26T11:08:25.373Z,8.90
2023-04-26T11:13:27.326Z,9.80
2023-04-26T11:18:29.531Z,9.90
2023-04-26T11:23:32.211Z,9.70
2023-04-26T11:28:38.829Z,9.90
2023-04-26T11:33:41.582Z,10.30
2023-04-26T11:38:43.879Z,10.30
2023-04-26T11:43:45.658Z,10.50
2023-04-26T11:48:47.724Z,10.70
2023-04-26T11:53:51.759Z,10.50
2023-04-26T11:58:54.851Z,10.40
2023-04-26T12:04:00.493Z,10.20
2023-04-26T12:09:05.806Z,10.10
2023-04-26T12:14:09.857Z,9.90
2023-04-26T12:19:13.190Z,10.20
2023-04-26T12:24:35.860Z,10.30
2023-04-26T12:29:37.732Z,11.00
2023-04-26T12:34:39.972Z,10.90
2023-04-26T12:39:41.727Z,11.20
2023-04-26T12:44:43.454Z,11.00
2023-04-26T12:49:45.235Z,10.50
2023-04-26T12:54:48.924Z,10.60
2023-04-26T12:59:50.825Z,10.50
2023-04-26T13:04:52.762Z,11.30
2023-04-26T13:09:54.692Z,12.30
2023-04-26T13:14:56.743Z,13.30
2023-04-26T13:19:58.544Z,13.60
2023-04-26T13:25:00.452Z,13.10
2023-04-26T13:30:02.446Z,12.50
2023-04-26T13:35:04.550Z,12.60
2023-04-26T13:40:07.040Z,13.10
2023-04-26T13:45:10.285Z,12.40
2023-04-26T13:50:12.083Z,11.90
2023-04-26T13:55:14.460Z,11.70
2023-04-26T14:00:16.708Z,11.30
2023-04-26T14:05:18.514Z,11.00
2023-04-26T14:10:20.929Z,11.00
2023-04-26T14:15:22.788Z,11.60
2023-04-26T14:20:24.500Z,11.70
2023-04-26T14:25:27.165Z,10.90
2023-04-26T14:30:29.304Z,10.90
2023-04-26T14:35:31.014Z,12.00
2023-04-26T14:40:32.850Z,12.10
2023-04-26T14:45:44.068Z,11.70
2023-04-26T14:50:46.557Z,11.60
2023-04-26T14:55:57.565Z,11.60
2023-04-26T15:00:59.352Z,11.70
2023-04-26T15:06:01.139Z,11.20
2023-04-26T15:11:04.158Z,11.10
2023-04-26T15:16:07.999Z,10.90
2023-04-26T15:21:15.725Z,10.70
2023-04-26T15:26:17.402Z,10.60
2023-04-26T15:31:20.653Z,10.60
2023-04-26T15:36:22.830Z,10.60
2023-04-26T15:41:24.626Z,10.70
2023-04-26T15:46:26.471Z,10.60
2023-04-26T15:51:28.251Z,10.60
2023-04-26T15:56:29.975Z,10.40
2023-04-26T16:01:31.856Z,10.40
2023-04-26T16:06:33.714Z,10.30
2023-04-26T16:11:36.040Z,10.40
2023-04-26T16:16:39.869Z,10.10
2023-04-26T16:21:41.708Z,9.90
2023-04-26T16:26:43.450Z,9.90
2023-04-26T16:31:45.597Z,10.00
2023-04-26T16:36:47.485Z,9.80
2023-04-26T16:41:49.160Z,9.90
2023-04-26T16:46:51.258Z,9.70
2023-04-26T16:51:56.345Z,9.70
2023-04-26T16:56:58.267Z,9.60
2023-04-26T17:02:00.179Z,9.80
2023-04-26T17:07:02.068Z,9.80
2023-04-26T17:12:04.137Z,9.80
2023-04-26T17:17:05.865Z,10.00
2023-04-26T17:22:07.757Z,10.10
2023-04-26T17:27:09.450Z,10.10
2023-04-26T17:32:11.246Z,10.10
2023-04-26T17:37:13.025Z,9.90
2023-04-26T17:42:14.835Z,9.70
2023-04-26T17:47:16.546Z,9.60
2023-04-26T17:52:18.318Z,9.60
2023-04-26T17:57:22.961Z,9.50
2023-04-26T18:02:24.996Z,9.40
2023-04-26T18:07:27.002Z,9.20
2023-04-26T18:12:30.659Z,9.10
2023-04-26T18:17:32.474Z,9.00
2023-04-26T18:22:34.231Z,8.90
2023-04-26T18:27:36.028Z,8.80
2023-04-26T18:32:37.836Z,8.80
2023-04-26T18:37:41.054Z,8.80
2023-04-26T18:42:44.890Z,8.70
2023-04-26T18:47:47.104Z,8.70
2023-04-26T18:57:52.544Z,8.70
2023-04-26T19:02:54.970Z,8.70
2023-04-26T19:07:56.829Z,8.70
2023-04-26T19:12:58.563Z,8.70
2023-04-26T19:18:00.641Z,8.60
2023-04-26T19:23:02.513Z,8.50
2023-04-26T19:28:04.454Z,8.50
2023-04-26T19:33:07.190Z,8.30
2023-04-26T19:38:09.823Z,8.20
2023-04-26T19:43:11.561Z,8.10
2023-04-26T19:48:13.364Z,8.10
2023-04-26T19:53:15.600Z,7.90
2023-04-26T19:58:18.067Z,8.00
2023-04-26T20:03:19.872Z,7.90
2023-04-26T20:08:21.810Z,7.90
2023-04-26T20:13:23.578Z,7.90
2023-04-26T20:18:26.174Z,7.80
2023-04-26T20:23:27.976Z,7.80
2023-04-26T20:28:29.705Z,7.80
2023-04-26T20:33:31.728Z,7.80
2023-04-26T20:38:33.503Z,7.70
2023-04-26T20:43:35.295Z,7.70
2023-04-26T20:48:37.057Z,7.60
2023-04-26T20:53:38.884Z,7.50
2023-04-26T20:58:41.118Z,7.60
2023-04-26T21:03:43.036Z,7.50
2023-04-26T21:08:44.903Z,7.50
2023-04-26T21:13:48.105Z,7.50
2023-04-26T21:18:49.843Z,7.50
2023-04-26T21:23:51.517Z,7.50
2023-04-26T21:28:53.352Z,7.60
2023-04-26T21:33:55.749Z,7.60
2023-04-26T21:38:57.756Z,7.60
2023-04-26T21:44:00.438Z,7.50
2023-04-26T21:49:02.207Z,7.60
2023-04-26T21:54:03.928Z,7.60
2023-04-26T21:59:08.334Z,7.70
2023-04-26T22:04:10.620Z,7.70
2023-04-26T22:09:12.730Z,7.70
2023-04-26T22:14:14.715Z,7.90
2023-04-26T22:19:16.533Z,7.80
2023-04-26T22:24:18.269Z,7.80
2023-04-26T22:29:20.077Z,7.80
2023-04-26T22:34:21.822Z,7.90
2023-04-26T22:39:23.534Z,7.80
2023-04-26T22:44:25.284Z,7.70
2023-04-26T22:49:27.374Z,7.60
2023-04-26T22:54:29.074Z,7.70
2023-04-26T22:59:34.102Z,7.60
2023-04-26T23:04:35.969Z,7.50
2023-04-26T23:09:37.755Z,7.50
2023-04-26T23:14:39.573Z,7.50
2023-04-26T23:19:42.211Z,7.50
2023-04-26T23:24:43.954Z,7.70
2023-04-26T23:29:45.950Z,7.50
2023-04-26T23:34:47.678Z,7.50
2023-04-26T23:39:49.369Z,7.50
2023-04-26T23:44:51.130Z,7.50
2023-04-26T23:49:52.832Z,7.60
2023-04-26T23:54:54.652Z,7.60
2023-04-26T23:59:56.570Z,7.50
